Data for 08/21/2006

Time Sea-Level Adjusted Pressure Absolute Pressure Temperature Relative Humidity Dew Point   
(mb) (inHg) (mb) (inHg) (C) (F) (%) (C) (F)
00:05 1023 30.21 852 25.16 19.2 66.5 37 4.3 39.8
00:10 1023 30.21 852 25.16 19.1 66.4 37 4.2 39.6
00:15 1023 30.21 852 25.16 19 66.3 37 4.4 39.8
00:20 1023 30.21 852 25.16 18.8 65.8 38 4.4 40
00:25 1023 30.21 852 25.16 18.7 65.7 38 4.4 40
00:30 1023 30.21 853 25.19 18.7 65.6 38 4.4 39.9
00:35 1023 30.21 852 25.16 18.7 65.6 38 4.3 39.8
00:40 1023 30.21 852 25.16 18.8 65.9 38 4.3 39.8
00:45 1023 30.21 852 25.16 18.8 65.9 38 4.5 40
00:50 1023 30.21 852 25.16 18.8 65.9 38 4.3 39.7
00:55 1023 30.21 852 25.16 18.8 65.8 38 4.3 39.7
01:00 1023 30.21 852 25.16 18.8 65.8 38 4.4 39.9
01:05 1023 30.21 852 25.16 18.7 65.7 38 4.4 39.8
01:10 1023 30.21 852 25.16 18.7 65.7 38 4.4 39.9
01:15 1023 30.21 852 25.16 18.8 65.8 38 4.4 39.9
01:20 1023 30.21 852 25.16 18.7 65.7 39 4.5 40
01:25 1023 30.21 852 25.16 18.6 65.4 39 4.5 40.1
01:30 1023 30.21 852 25.16 18.5 65.4 39 4.5 40
01:35 1023 30.21 852 25.16 18.4 65.2 40 4.6 40.2
01:40 1023 30.21 852 25.16 18.2 64.8 40 4.5 40.1
01:45 1023 30.21 852 25.16 18.2 64.8 40 4.6 40.2
01:50 1023 30.21 852 25.16 18.1 64.7 40 4.5 40.1
01:55 1023 30.21 852 25.16 18.1 64.5 41 4.6 40.2
02:00 1023 30.21 852 25.16 17.9 64.3 41 4.6 40.3
02:05 1023 30.21 852 25.16 17.9 64.1 41 4.6 40.3
02:10 1023 30.21 852 25.16 17.8 64.1 41 4.6 40.2
02:15 1023 30.21 852 25.16 17.9 64.2 41 4.7 40.4
02:20 1023 30.21 852 25.16 17.8 64 42 4.7 40.4
02:25 1023 30.21 852 25.16 17.6 63.7 42 4.6 40.2
02:30 1023 30.21 852 25.16 17.7 63.8 42 4.6 40.3
02:35 1023 30.21 852 25.16 17.7 63.8 41 4.6 40.2
02:40 1023 30.21 852 25.16 17.7 63.9 42 4.7 40.5
02:45 1023 30.21 852 25.16 17.7 63.8 42 4.6 40.3
02:50 1023 30.21 852 25.16 17.5 63.5 42 4.6 40.3
02:55 1023 30.21 852 25.16 17.5 63.4 42 4.6 40.3
03:00 1023 30.21 852 25.16 17.4 63.3 42 4.6 40.3
03:05 1023 30.21 852 25.16 17.4 63.4 43 4.7 40.4
03:10 1023 30.21 852 25.16 17.2 63 43 4.6 40.2
03:15 1023 30.21 852 25.16 17.2 63 43 4.6 40.3
03:20 1023 30.21 852 25.16 17.2 63 43 4.6 40.3
03:25 1023 30.21 852 25.16 17.2 63 43 4.5 40.1
03:30 1023 30.21 852 25.16 17.3 63.1 42 4.5 40.1
03:35 1023 30.21 852 25.16 17.3 63.1 43 4.6 40.3
03:40 1023 30.21 852 25.16 17.2 62.9 43 4.5 40.2
03:45 1023 30.21 852 25.16 17.2 63 43 4.6 40.2
03:50 1023 30.21 852 25.16 17.2 63 43 4.6 40.2
03:55 1023 30.21 852 25.16 17.1 62.9 43 4.6 40.2
04:00 1023 30.21 852 25.16 17.1 62.8 43 4.6 40.2
04:05 1023 30.21 852 25.16 17.1 62.7 43 4.6 40.2
04:10 1023 30.21 852 25.16 17.1 62.7 43 4.6 40.3
04:15 1023 30.21 852 25.16 17 62.6 43 4.5 40.1
04:20 1023 30.21 852 25.16 17 62.6 43 4.5 40.1
04:25 1023 30.21 852 25.16 17.1 62.8 43 4.4 40
04:30 1023 30.21 852 25.16 17.1 62.7 43 4.4 39.9
04:35 1023 30.21 852 25.16 17.1 62.7 43 4.5 40.1
04:40 1023 30.21 852 25.16 17 62.6 43 4.5 40.1
04:45 1023 30.21 852 25.16 17 62.6 43 4.4 39.9
04:50 1023 30.21 852 25.16 17.1 62.8 43 4.4 40
04:55 1023 30.21 852 25.16 17.1 62.9 43 4.5 40.1
05:00 1023 30.21 852 25.16 17.1 62.7 43 4.5 40.2
05:05 1023 30.21 852 25.16 17 62.5 43 4.5 40
05:10 1023 30.21 852 25.16 17 62.5 43 4.6 40.2
05:15 1023 30.21 852 25.16 16.9 62.3 44 4.5 40.1
05:20 1023 30.21 853 25.19 16.8 62.3 44 4.5 40.1
05:25 1023 30.21 853 25.19 16.8 62.3 44 4.5 40.1
05:30 1023 30.21 853 25.19 16.8 62.3 44 4.6 40.3
05:35 1023 30.21 853 25.19 16.7 62.1 44 4.7 40.4
05:40 1023 30.21 853 25.19 16.7 62 45 4.6 40.4
05:45 1023 30.21 853 25.19 16.7 62 45 4.7 40.4
05:50 1023 30.21 853 25.19 16.7 62.1 44 4.6 40.3
05:55 1024 30.24 853 25.19 16.7 62.1 44 4.5 40.1
06:00 1024 30.24 853 25.19 16.7 62.1 44 4.6 40.3
06:05 1024 30.24 853 25.19 16.8 62.2 44 4.6 40.3
06:10 1023 30.21 853 25.19 16.7 62.1 44 4.6 40.4
06:15 1024 30.24 853 25.19 16.6 61.9 45 4.7 40.5
06:20 1024 30.24 853 25.19 16.5 61.6 45 4.8 40.6
06:25 1024 30.24 853 25.19 16.3 61.4 46 4.7 40.5
06:30 1024 30.24 853 25.19 16.2 61.2 46 4.6 40.4
06:35 1024 30.24 853 25.19 16.2 61.2 46 4.8 40.7
06:40 1024 30.24 853 25.19 16.1 61 47 4.8 40.7
06:45 1024 30.24 853 25.19 16 60.9 47 4.8 40.7
06:50 1024 30.24 853 25.19 16 60.7 47 4.8 40.6
06:55 1024 30.24 853 25.19 16 60.7 47 4.8 40.6
07:00 1024 30.24 853 25.19 16.1 60.9 47 4.8 40.6
07:05 1024 30.24 853 25.19 16.1 60.9 47 4.7 40.5
07:10 1024 30.24 853 25.19 16.1 61.1 47 4.8 40.6
07:15 1024 30.24 853 25.19 16.1 61.1 47 4.8 40.7
07:20 1024 30.24 853 25.19 16.2 61.1 47 4.9 40.8
07:25 1024 30.24 853 25.19 16.2 61.2 47 5 41.1
07:30 1024 30.24 853 25.19 16.2 61.1 47 4.9 40.8
07:35 1024 30.24 853 25.19 16.2 61.2 46 4.9 40.7
07:40 1024 30.24 853 25.19 16.3 61.3 47 4.9 40.9
07:45 1024 30.24 853 25.19 16.3 61.4 47 5.2 41.3
07:50 1024 30.24 853 25.19 16.3 61.3 47 5 41
07:55 1024 30.24 853 25.19 16.4 61.5 46 4.9 40.8
08:00 1024 30.24 853 25.19 16.6 61.9 46 5.1 41.2
08:05 1024 30.24 853 25.19 16.7 62 46 5.2 41.3
08:10 1024 30.24 853 25.19 16.9 62.5 46 5.2 41.4
08:15 1024 30.24 853 25.19 17.2 63 45 5.2 41.3
08:20 1024 30.24 853 25.19 17.4 63.3 44 5 41.1
08:25 1024 30.24 853 25.19 17.4 63.3 43 4.9 40.8
08:30 1024 30.24 853 25.19 17.6 63.6 44 5.2 41.3
08:35 1024 30.24 853 25.19 17.7 63.9 42 4.9 40.8
08:40 1024 30.24 853 25.19 18 64.4 42 5 40.9
08:45 1024 30.24 853 25.19 18 64.3 42 4.8 40.7
08:50 1024 30.24 853 25.19 18.2 64.8 42 5.1 41.1
08:55 1024 30.24 853 25.19 18.4 65.1 41 4.9 40.9
09:00 1024 30.24 853 25.19 18.6 65.5 40 5 41.1
09:05 1024 30.24 853 25.19 18.8 65.8 40 4.9 40.9
09:10 1024 30.24 853 25.19 18.9 66 39 4.7 40.5
09:15 1024 30.24 853 25.19 19.1 66.4 38 4.7 40.5
09:20 1024 30.24 853 25.19 19.5 67.1 37 4.6 40.3
09:25 1024 30.24 853 25.19 19.7 67.5 39 5.7 42.2
09:30 1024 30.24 853 25.19 19.4 66.8 40 5.6 42.1
09:35 1024 30.24 853 25.19 19.5 67.1 40 5.7 42.3
09:40 1024 30.24 853 25.19 19.8 67.7 39 5.5 41.9
09:45 1024 30.24 853 25.19 20.6 69 35 4.9 40.8
09:50 1024 30.24 853 25.19 20.8 69.4 37 5.6 42.2
09:55 1024 30.24 853 25.19 21.1 70 35 5.3 41.6
10:00 1024 30.24 853 25.19 21.3 70.3 36 5.6 42
10:05 1024 30.24 853 25.19 21.2 70.1 35 5.1 41.2
10:10 1024 30.24 853 25.19 22 71.5 34 5.5 41.9
10:15 1024 30.24 853 25.19 22.1 71.8 34 5.7 42.2
10:20 1024 30.24 853 25.19 22 71.7 34 5.6 42.2
10:25 1024 30.24 853 25.19 21.1 70.1 35 5.2 41.4
10:30 1024 30.24 853 25.19 21.9 71.4 33 5.1 41.2
10:35 1024 30.24 853 25.19 22.4 72.4 32 5.2 41.4
10:40 1024 30.24 853 25.19 22.3 72.1 32 4.9 40.8
10:45 1024 30.24 853 25.19 22.1 71.8 33 5.1 41.2
10:50 1024 30.24 853 25.19 21.6 70.9 34 5.1 41.3
10:55 1024 30.24 853 25.19 22.1 71.7 32 4.7 40.5
11:00 1024 30.24 853 25.19 22.7 72.9 31 5 40.9
11:05 1024 30.24 853 25.19 23.8 74.8 29 5.1 41.2
11:10 1024 30.24 853 25.19 24.1 75.3 30 5.8 42.5
11:15 1024 30.24 853 25.19 23 73.4 32 5.4 41.8
11:20 1024 30.24 853 25.19 22.4 72.4 32 5 41.1
11:25 1024 30.24 853 25.19 23.2 73.8 30 5 40.9
11:30 1024 30.24 853 25.19 23.6 74.4 31 5.5 42
11:35 1024 30.24 853 25.19 24.3 75.8 28 5 41
11:40 1024 30.24 853 25.19 24 75.3 30 5.6 42
11:45 1024 30.24 853 25.19 23.4 74.2 30 5.2 41.3
11:50 1024 30.24 853 25.19 24.1 75.4 28 4.9 40.8
11:55 1024 30.24 853 25.19 24.7 76.5 29 5.6 42
12:00 1023 30.21 853 25.19 25.2 77.4 28 5.5 41.9
12:05 1023 30.21 853 25.19 25.8 78.5 27 5.5 41.8
12:10 1023 30.21 853 25.19 25.1 77.2 28 5.3 41.6
12:15 1023 30.21 853 25.19 24.5 76 28 5.2 41.4
12:20 1023 30.21 853 25.19 25.5 78 27 5.5 42
12:25 1023 30.21 852 25.16 26.4 79.5 25 5.2 41.3
12:30 1023 30.21 852 25.16 26.6 79.9 25 5.4 41.7
12:35 1023 30.21 852 25.16 26.6 79.8 26 5.7 42.2
12:40 1023 30.21 852 25.16 26.8 80.3 25 5.5 41.8
12:45 1023 30.21 852 25.16 27.4 81.2 25 6.1 42.9
12:50 1023 30.21 852 25.16 27.6 81.6 25 6.3 43.3
12:55 1023 30.21 852 25.16 27.4 81.2 24 5.5 42
13:00 1023 30.21 852 25.16 27.1 80.8 24 5.2 41.4
13:05 1023 30.21 852 25.16 27.1 80.8 24 5.3 41.6
13:10 1023 30.21 852 25.16 27.3 81.1 22 4 39.2
13:15 1023 30.21 852 25.16 27.5 81.5 22 4.1 39.4
13:20 1023 30.21 852 25.16 27.8 82 22 4.5 40
13:25 1023 30.21 852 25.16 27.9 82.3 22 4.4 39.9
13:30 1023 30.21 852 25.16 28 82.3 22 4.4 40
13:35 1023 30.21 852 25.16 28.3 82.9 21 4.3 39.7
13:40 1023 30.21 852 25.16 28.4 83.1 21 4.4 39.9
13:45 1023 30.21 852 25.16 28 82.5 21 4.2 39.5
13:50 1023 30.21 852 25.16 27.8 82 22 4.5 40.1
13:55 1022 30.18 852 25.16 28.4 83 21 4.3 39.7
14:00 1022 30.18 852 25.16 28.8 83.8 20 4 39.2
14:05 1022 30.18 851 25.13 28.4 83.2 21 4.4 40
14:10 1022 30.18 851 25.13 27.8 82 21 3.8 38.8
14:15 1022 30.18 851 25.13 27.3 81.2 21 3.7 38.6
14:20 1022 30.18 851 25.13 27.4 81.2 21 3.2 37.7
14:25 1022 30.18 851 25.13 28.2 82.7 21 4 39.2
14:30 1022 30.18 851 25.13 28.8 83.8 19 3.5 38.3
14:35 1022 30.18 851 25.13 29.3 84.7 18 2.9 37.3
14:40 1022 30.18 851 25.13 29.9 85.7 16 1.8 35.2
14:45 1022 30.18 851 25.13 29.9 85.9 16 1.4 34.5
14:50 1022 30.18 851 25.13 29.9 85.8 14 -0.2 31.6
14:55 1022 30.18 851 25.13 30.1 86.3 14 0.5 32.9
15:00 1022 30.18 851 25.13 29.4 84.9 14 -0.4 31.2
15:05 1022 30.18 851 25.13 29.1 84.4 16 0.7 33.2
15:10 1021 30.15 851 25.13 29.3 84.7 16 1.5 34.7
15:15 1021 30.15 851 25.13 29.1 84.4 15 0.4 32.7
15:20 1021 30.15 851 25.13 29.1 84.5 14 -0.4 31.2
15:25 1021 30.15 851 25.13 29.4 84.9 15 0.4 32.8
15:30 1021 30.15 850 25.1 29.7 85.4 15 0.2 32.3
15:35 1021 30.15 850 25.1 29.8 85.7 15 0.8 33.4
15:40 1021 30.15 850 25.1 29.6 85.3 15 0.4 32.8
15:45 1021 30.15 850 25.1 29 84.2 15 0.5 32.9
15:50 1021 30.15 850 25.1 28.7 83.7 15 0 32.1
15:55 1021 30.15 850 25.1 28.7 83.7 15 -0.1 31.9
16:00 1021 30.15 850 25.1 28.7 83.7 16 0.4 32.7
16:05 1021 30.15 850 25.1 29.1 84.5 15 0.3 32.5
16:10 1021 30.15 850 25.1 29 84.3 15 0.2 32.4
16:15 1021 30.15 851 25.13 29.1 84.3 15 0.4 32.7
16:20 1021 30.15 851 25.13 29 84.1 15 0.4 32.7
16:25 1021 30.15 851 25.13 28.6 83.4 15 -0.1 31.9
16:30 1021 30.15 851 25.13 28.5 83.4 16 0.6 33
16:35 1021 30.15 851 25.13 28.1 82.5 18 2.1 35.8
16:40 1021 30.15 851 25.13 27.6 81.7 17 1 33.8
16:45 1021 30.15 851 25.13 27.5 81.4 20 2.9 37.2
16:50 1021 30.15 851 25.13 27.1 80.8 20 2.5 36.5
16:55 1021 30.15 851 25.13 27 80.7 21 3.1 37.6
17:00 1021 30.15 851 25.13 27.1 80.8 19 2.1 35.8
17:05 1021 30.15 850 25.1 27 80.6 24 5.2 41.3
17:10 1021 30.15 850 25.1 27.1 80.7 23 4.3 39.7
17:15 1021 30.15 850 25.1 27 80.6 20 2.7 36.9
17:20 1021 30.15 850 25.1 27.1 80.7 21 3.2 37.8
17:25 1021 30.15 850 25.1 27.4 81.3 24 5.2 41.4
17:30 1021 30.15 850 25.1 28.1 82.6 19 2.7 36.9
17:35 1021 30.15 850 25.1 28.3 83 15 -0.3 31.4
17:40 1021 30.15 850 25.1 28.1 82.5 15 -0.4 31.3
17:45 1021 30.15 850 25.1 27.9 82.2 19 2.2 36
17:50 1021 30.15 850 25.1 28 82.4 17 1.3 34.4
17:55 1021 30.15 850 25.1 28.1 82.7 18 1.8 35.2
18:00 1021 30.15 850 25.1 28.4 83.1 17 1.7 35
18:05 1021 30.15 850 25.1 28.6 83.4 16 0.6 33.1
18:10 1021 30.15 850 25.1 28.4 83.2 16 0.4 32.8
18:15 1021 30.15 850 25.1 28.5 83.3 16 0.2 32.4
18:20 1021 30.15 850 25.1 28.6 83.4 16 0.5 32.9
18:25 1021 30.15 850 25.1 28.2 82.7 15 -0.5 31.1
18:30 1020 30.12 850 25.1 28 82.4 17 1.3 34.3
18:35 1020 30.12 850 25.1 27.7 81.9 16 -0.1 31.9
18:40 1020 30.12 850 25.1 27.5 81.6 16 -0.3 31.4
18:45 1020 30.12 850 25.1 27.5 81.5 16 -0.5 31.1
18:50 1020 30.12 850 25.1 27.5 81.5 16 -0.6 30.9
18:55 1020 30.12 849 25.07 27.5 81.5 16 -0.3 31.4
19:00 1020 30.12 849 25.07 27.4 81.3 16 -0.1 31.8
19:05 1020 30.12 849 25.07 27.2 81 17 0.3 32.6
19:10 1020 30.12 849 25.07 27.1 80.8 17 0.5 33
19:15 1020 30.12 849 25.07 27 80.5 19 1.5 34.6
19:20 1020 30.12 849 25.07 26.7 80 19 1.1 34
19:25 1020 30.12 849 25.07 26.6 79.9 19 1 33.8
19:30 1020 30.12 849 25.07 26.4 79.6 19 1.1 34
19:35 1020 30.12 849 25.07 26.1 79.1 19 1 33.8
19:40 1020 30.12 849 25.07 26 78.9 19 1.1 33.9
19:45 1020 30.12 849 25.07 25.9 78.6 20 1.7 35
19:50 1020 30.12 849 25.07 25.7 78.3 20 1.2 34.2
19:55 1020 30.12 849 25.07 25.6 78.1 21 1.6 35
20:00 1020 30.12 849 25.07 25.5 77.8 21 1.5 34.7
20:05 1020 30.12 850 25.1 25.2 77.3 22 2.3 36.2
20:10 1020 30.12 850 25.1 24.7 76.5 25 3.6 38.4
20:15 1020 30.12 850 25.1 24.3 75.8 26 3.7 38.7
20:20 1021 30.15 850 25.1 24.3 75.8 27 4.6 40.2
20:25 1021 30.15 850 25.1 24 75.2 27 4.3 39.8
20:30 1021 30.15 850 25.1 23.6 74.5 28 4.1 39.3
20:35 1021 30.15 850 25.1 24 75.1 28 4.3 39.8
20:40 1021 30.15 850 25.1 23.9 75 33 6.8 44.3
20:45 1021 30.15 850 25.1 23.7 74.7 27 3.6 38.5
20:50 1021 30.15 850 25.1 23.6 74.5 26 3.3 38
20:55 1021 30.15 850 25.1 23.8 74.9 25 2.7 36.9
21:00 1021 30.15 850 25.1 24 75.1 24 2.5 36.4
21:05 1021 30.15 850 25.1 24.5 76.1 21 1.1 33.9
21:10 1021 30.15 850 25.1 24.7 76.5 23 2.7 36.8
21:15 1021 30.15 850 25.1 24.4 75.9 22 1.8 35.3
21:20 1021 30.15 850 25.1 24.4 75.9 21 1.2 34.1
21:25 1021 30.15 850 25.1 24.3 75.8 22 1.4 34.5
21:30 1021 30.15 850 25.1 24 75.1 22 1.1 34
21:35 1021 30.15 850 25.1 24.3 75.7 21 0.6 33
21:40 1021 30.15 850 25.1 24.6 76.3 20 0.7 33.2
21:45 1021 30.15 850 25.1 24.6 76.2 20 0.4 32.7
21:50 1021 30.15 850 25.1 24.7 76.5 20 0.4 32.8
21:55 1021 30.15 850 25.1 24.6 76.3 24 3 37.4
22:00 1021 30.15 850 25.1 24.4 75.9 21 1 33.9
22:05 1021 30.15 850 25.1 24 75.1 22 1.4 34.6
22:10 1021 30.15 850 25.1 23.3 74 24 1.9 35.4
22:15 1021 30.15 850 25.1 22.9 73.2 24 1.4 34.5
22:20 1021 30.15 850 25.1 22.7 72.9 24 1.3 34.3
22:25 1021 30.15 850 25.1 22.6 72.6 25 1.8 35.2
22:30 1021 30.15 850 25.1 22.6 72.6 24 1.1 34
22:35 1021 30.15 850 25.1 22.8 73 23 1 33.8
22:40 1021 30.15 850 25.1 22.7 72.8 24 1.3 34.3
22:45 1021 30.15 850 25.1 22.3 72.2 25 1.3 34.4
22:50 1021 30.15 850 25.1 22.1 71.7 25 1.4 34.5
22:55 1021 30.15 850 25.1 22 71.6 25 1 33.9
23:00 1021 30.15 850 25.1 22.1 71.8 25 1.2 34.2
23:05 1021 30.15 850 25.1 22.1 71.8 25 1.2 34.1
23:10 1021 30.15 850 25.1 22 71.6 28 3.1 37.5
23:15 1021 30.15 850 25.1 21.4 70.5 28 2.4 36.4
23:20 1021 30.15 850 25.1 20.8 69.5 28 1.7 35.1
23:25 1021 30.15 850 25.1 21.2 70.1 26 1.3 34.3
23:30 1021 30.15 850 25.1 21.7 71 25 0.8 33.5
23:35 1021 30.15 850 25.1 21.9 71.3 26 1.6 34.9
23:40 1021 30.15 850 25.1 21.3 70.3 26 1.4 34.5
23:45 1021 30.15 850 25.1 21.1 69.9 28 1.8 35.3
23:50 1021 30.15 850 25.1 21.1 69.9 26 0.8 33.5
23:55 1021 30.15 850 25.1 21.4 70.4 25 0.8 33.5
24:00 1021 30.15 850 25.1 21.5 70.8 26 1.4 34.5